TimeCDT,TemperatureF,Dew PointF,Humidity,Sea Level PressureIn,VisibilityMPH,Wind Direction,Wind SpeedMPH,Gust SpeedMPH,PrecipitationIn,Events,Conditions,WindDirDegrees,DateUTC
12:53 AM,59.0,57.0,93,29.90,10.0,South,3.5,-,0.06,Rain-Thunderstorm,Light Rain,170,2013-05-09 05:53:00
1:00 AM,59.0,57.2,94,29.92,10.0,South,3.5,-,0.00,,Overcast,170,2013-05-09 06:00:00
1:08 AM,59.0,57.2,94,29.92,7.0,Variable,3.5,-,0.00,Rain-Thunderstorm,Light Thunderstorms and Rain,0,2013-05-09 06:08:00
1:48 AM,60.8,57.2,88,29.88,10.0,Calm,Calm,-,0.04,,Overcast,0,2013-05-09 06:48:00
1:53 AM,60.1,57.9,93,29.86,10.0,Calm,Calm,-,0.04,Rain,Light Rain,0,2013-05-09 06:53:00
2:53 AM,60.1,57.9,93,29.88,10.0,NW,3.5,-,0.00,,Overcast,310,2013-05-09 07:53:00
3:53 AM,59.0,57.9,96,29.89,9.0,Calm,Calm,-,N/A,,Mostly Cloudy,0,2013-05-09 08:53:00
4:53 AM,59.0,57.0,93,29.84,8.0,SE,4.6,-,N/A,,Clear,140,2013-05-09 09:53:00
5:53 AM,57.9,57.0,97,29.84,5.0,Calm,Calm,-,N/A,,Scattered Clouds,0,2013-05-09 10:53:00
6:53 AM,57.9,55.9,93,29.85,4.0,WNW,3.5,-,N/A,,Clear,290,2013-05-09 11:53:00
7:53 AM,59.0,57.0,93,29.85,5.0,South,3.5,-,N/A,,Clear,180,2013-05-09 12:53:00
8:53 AM,60.1,57.9,93,29.88,6.0,West,4.6,-,N/A,,Mostly Cloudy,260,2013-05-09 13:53:00
9:53 AM,62.1,57.9,86,29.88,10.0,WSW,5.8,-,N/A,,Clear,250,2013-05-09 14:53:00
10:53 AM,66.9,59.0,76,29.88,10.0,WSW,9.2,-,N/A,,Clear,250,2013-05-09 15:53:00
12:53 PM,72.0,57.0,59,29.88,10.0,West,11.5,16.1,N/A,,Mostly Cloudy,270,2013-05-09 17:53:00
1:53 PM,72.0,55.9,57,29.87,10.0,Variable,6.9,-,N/A,,Mostly Cloudy,0,2013-05-09 18:53:00
2:53 PM,73.0,57.0,57,29.85,10.0,WNW,5.8,-,N/A,,Mostly Cloudy,300,2013-05-09 19:53:00
3:53 PM,72.0,55.0,55,29.85,10.0,NW,5.8,-,N/A,,Overcast,320,2013-05-09 20:53:00
4:53 PM,71.1,57.9,63,29.86,10.0,NW,8.1,-,N/A,,Mostly Cloudy,310,2013-05-09 21:53:00
5:53 PM,72.0,57.9,61,29.86,10.0,NNW,8.1,-,N/A,,Mostly Cloudy,340,2013-05-09 22:53:00
6:24 PM,71.6,57.2,60,29.88,10.0,NNW,8.1,-,N/A,Thunderstorm,Thunderstorm,340,2013-05-09 23:24:00
6:53 PM,70.0,57.9,65,29.87,10.0,North,10.4,-,N/A,Thunderstorm,Mostly Cloudy,360,2013-05-09 23:53:00
7:53 PM,69.1,57.0,65,29.87,10.0,North,8.1,-,N/A,,Overcast,350,2013-05-10 00:53:00
9:53 PM,64.0,55.9,75,29.90,10.0,North,5.8,-,N/A,,Clear,350,2013-05-10 02:53:00
10:53 PM,60.1,55.0,83,29.93,10.0,Calm,Calm,-,N/A,,Clear,0,2013-05-10 03:53:00